createdAt,value
2023-06-08T00:02:25.590Z,0.60
2023-06-08T00:04:54.175Z,0.60
2023-06-08T00:07:22.966Z,0.50
2023-06-08T00:09:52.273Z,0.50
2023-06-08T00:12:19.460Z,0.60
2023-06-08T00:14:46.950Z,0.60
2023-06-08T00:17:14.899Z,0.50
2023-06-08T00:19:44.171Z,0.60
2023-06-08T00:22:14.153Z,0.60
2023-06-08T00:24:41.523Z,0.60
2023-06-08T00:27:10.065Z,0.60
2023-06-08T00:29:36.859Z,0.60
2023-06-08T00:32:04.019Z,0.55
2023-06-08T00:34:30.951Z,0.60
2023-06-08T00:36:57.681Z,0.50
2023-06-08T00:39:24.309Z,0.60
2023-06-08T00:41:51.231Z,0.60
2023-06-08T00:44:18.076Z,0.60
2023-06-08T00:46:44.895Z,0.60
2023-06-08T00:49:17.232Z,0.60
2023-06-08T00:51:44.921Z,0.50
2023-06-08T00:54:15.912Z,0.60
2023-06-08T00:56:43.602Z,0.50
2023-06-08T00:59:13.177Z,0.60
2023-06-08T01:01:41.672Z,0.52
2023-06-08T01:04:10.137Z,0.60
2023-06-08T01:06:46.067Z,0.55
2023-06-08T01:09:45.238Z,0.60
2023-06-08T01:12:34.365Z,0.60
2023-06-08T01:15:13.409Z,0.50
2023-06-08T01:17:49.662Z,0.60
2023-06-08T01:20:36.098Z,0.60
2023-06-08T01:23:12.159Z,0.60
2023-06-08T01:25:40.205Z,0.52
2023-06-08T01:28:14.195Z,0.52
2023-06-08T01:30:50.499Z,0.57
2023-06-08T01:33:19.916Z,0.60
2023-06-08T01:36:08.639Z,0.50
2023-06-08T01:38:47.356Z,0.55
2023-06-08T01:41:21.948Z,0.50
2023-06-08T01:43:51.643Z,0.57
2023-06-08T01:46:21.445Z,0.50
2023-06-08T01:48:50.082Z,0.52
2023-06-08T01:51:18.161Z,0.50
2023-06-08T01:53:44.927Z,0.50
2023-06-08T01:56:11.638Z,0.60
2023-06-08T01:58:38.335Z,0.50
2023-06-08T02:01:05.018Z,0.60
2023-06-08T02:03:31.700Z,0.50
2023-06-08T02:05:58.331Z,0.50
2023-06-08T02:08:24.975Z,0.50
2023-06-08T02:10:51.674Z,0.50
2023-06-08T02:13:18.302Z,0.50
2023-06-08T02:15:44.886Z,0.50
2023-06-08T02:18:12.454Z,0.50
2023-06-08T02:20:39.024Z,0.50
2023-06-08T02:23:05.682Z,0.60
2023-06-08T02:25:32.300Z,0.60
2023-06-08T02:27:59.004Z,0.60
2023-06-08T02:30:26.758Z,0.60
2023-06-08T02:32:54.510Z,0.60
2023-06-08T02:35:21.392Z,0.57
2023-06-08T02:37:48.104Z,0.50
2023-06-08T02:40:14.745Z,0.60
2023-06-08T02:42:41.745Z,0.60
2023-06-08T02:45:08.755Z,0.57
2023-06-08T02:47:35.728Z,0.52
2023-06-08T02:50:02.631Z,0.50
2023-06-08T02:52:29.302Z,0.50
2023-06-08T02:54:55.912Z,0.60
2023-06-08T02:57:22.522Z,0.50
2023-06-08T02:59:49.175Z,0.57
2023-06-08T03:02:16.284Z,0.60
2023-06-08T03:04:44.985Z,0.60
2023-06-08T03:07:16.682Z,0.50
2023-06-08T03:09:43.711Z,0.50
2023-06-08T03:12:13.643Z,0.50
2023-06-08T03:14:41.824Z,0.50
2023-06-08T03:17:09.071Z,0.50
2023-06-08T03:19:35.700Z,0.50
2023-06-08T03:22:06.063Z,0.60
2023-06-08T03:24:34.114Z,0.52
2023-06-08T03:27:02.663Z,0.50
2023-06-08T03:29:30.311Z,0.60
2023-06-08T03:31:58.124Z,0.52
2023-06-08T03:34:26.801Z,0.50
2023-06-08T03:36:54.653Z,0.60
2023-06-08T03:39:21.963Z,0.50
2023-06-08T03:41:48.927Z,0.50
2023-06-08T03:44:15.651Z,0.60
2023-06-08T03:46:42.379Z,0.60
2023-06-08T03:49:09.143Z,0.60
2023-06-08T03:51:36.968Z,0.60
2023-06-08T03:54:03.765Z,0.60
2023-06-08T03:56:30.526Z,0.60
2023-06-08T03:58:58.070Z,0.60
2023-06-08T04:01:24.895Z,0.60
2023-06-08T04:03:51.994Z,0.60
2023-06-08T04:06:19.998Z,0.60
2023-06-08T04:08:46.758Z,0.60
2023-06-08T04:11:13.778Z,0.70
2023-06-08T04:13:41.717Z,0.60
2023-06-08T04:16:10.948Z,0.60
2023-06-08T04:18:41.059Z,0.70
2023-06-08T04:21:08.792Z,0.63
2023-06-08T04:23:37.142Z,0.60
2023-06-08T04:26:08.266Z,0.70
2023-06-08T04:28:36.056Z,0.60
2023-06-08T04:31:03.028Z,0.60
2023-06-08T04:33:29.853Z,0.65
2023-06-08T04:35:57.703Z,0.70
2023-06-08T04:38:24.603Z,0.70
2023-06-08T04:40:55.803Z,0.70
2023-06-08T04:43:23.568Z,0.63
2023-06-08T04:45:58.699Z,0.70
2023-06-08T04:48:29.573Z,0.70
2023-06-08T04:51:01.345Z,0.70
2023-06-08T04:53:34.952Z,0.70
2023-06-08T04:58:30.949Z,0.80
2023-06-08T05:00:58.538Z,0.70
2023-06-08T05:03:26.849Z,0.70
2023-06-08T05:05:53.977Z,0.80
2023-06-08T05:08:20.798Z,0.80
2023-06-08T05:10:47.531Z,0.80
2023-06-08T05:13:14.375Z,0.80
2023-06-08T05:15:40.986Z,0.80
2023-06-08T05:18:07.730Z,0.80
2023-06-08T05:20:34.565Z,0.77
2023-06-08T05:23:01.304Z,0.80
2023-06-08T05:25:28.087Z,0.63
2023-06-08T05:27:54.668Z,0.80
2023-06-08T05:30:21.353Z,0.70
2023-06-08T05:32:48.207Z,0.77
2023-06-08T05:35:14.853Z,0.80
2023-06-08T05:37:41.519Z,0.80
2023-06-08T05:40:09.218Z,0.80
2023-06-08T05:42:36.297Z,0.80
2023-06-08T05:45:03.019Z,0.80
2023-06-08T05:47:32.993Z,0.80
2023-06-08T05:50:01.577Z,0.90
2023-06-08T05:52:28.378Z,0.80
2023-06-08T05:54:55.036Z,0.80
2023-06-08T05:57:21.806Z,0.80
2023-06-08T05:59:48.493Z,0.80
2023-06-08T06:02:15.257Z,0.80
2023-06-08T06:04:42.562Z,0.80
2023-06-08T06:07:09.577Z,0.70
2023-06-08T06:09:36.682Z,0.80
2023-06-08T06:12:04.060Z,0.85
2023-06-08T06:14:39.528Z,0.73
2023-06-08T06:17:08.369Z,0.80
2023-06-08T06:19:39.715Z,0.90
2023-06-08T06:22:11.100Z,0.80
2023-06-08T06:24:38.682Z,0.82
2023-06-08T06:27:06.771Z,0.80
2023-06-08T06:29:33.917Z,0.80
2023-06-08T06:32:00.867Z,0.82
2023-06-08T06:34:27.561Z,0.80
2023-06-08T06:36:54.644Z,0.80
2023-06-08T06:39:21.386Z,0.80
2023-06-08T06:41:48.040Z,0.80
2023-06-08T06:44:14.671Z,0.90
2023-06-08T06:46:42.082Z,0.80
2023-06-08T06:49:09.003Z,0.85
2023-06-08T06:51:37.641Z,0.80
2023-06-08T06:54:04.455Z,1.00
2023-06-08T06:56:32.306Z,0.88
2023-06-08T06:58:59.238Z,0.98
2023-06-08T07:01:26.298Z,0.90
2023-06-08T07:03:53.558Z,0.95
2023-06-08T07:06:24.435Z,1.00
2023-06-08T07:08:51.695Z,1.00
2023-06-08T07:11:18.450Z,1.00
2023-06-08T07:13:45.193Z,0.90
2023-06-08T07:16:12.031Z,0.90
2023-06-08T07:18:38.922Z,0.90
2023-06-08T07:21:05.531Z,0.80
2023-06-08T07:23:40.234Z,0.90
2023-06-08T07:26:26.232Z,0.98
2023-06-08T07:28:55.414Z,1.05
2023-06-08T07:31:24.353Z,0.93
2023-06-08T07:33:51.959Z,0.90
2023-06-08T07:36:18.632Z,0.95
2023-06-08T07:38:45.496Z,0.90
2023-06-08T07:41:12.724Z,1.10
2023-06-08T07:43:40.911Z,1.00
2023-06-08T07:46:07.677Z,1.08
2023-06-08T07:48:34.407Z,1.08
2023-06-08T07:51:01.284Z,1.00
2023-06-08T07:53:38.887Z,1.00
2023-06-08T07:56:06.443Z,1.10
2023-06-08T07:58:33.637Z,1.00
2023-06-08T08:01:01.628Z,1.05
2023-06-08T08:03:29.448Z,1.00
2023-06-08T08:05:56.835Z,1.00
2023-06-08T08:08:23.526Z,0.90
2023-06-08T08:10:50.592Z,0.80
2023-06-08T08:13:17.289Z,1.00
2023-06-08T08:15:44.063Z,0.88
2023-06-08T08:18:11.321Z,0.95
2023-06-08T08:20:38.250Z,1.10
2023-06-08T08:23:04.920Z,1.05
2023-06-08T08:25:31.641Z,1.02
2023-06-08T08:27:58.949Z,1.10
2023-06-08T08:30:25.954Z,1.10
2023-06-08T08:32:52.655Z,1.00
2023-06-08T08:35:19.677Z,1.05
2023-06-08T08:37:46.640Z,1.00
2023-06-08T08:40:14.842Z,1.08
2023-06-08T08:42:52.600Z,1.10
2023-06-08T08:45:22.739Z,0.93
2023-06-08T08:47:54.640Z,0.90
2023-06-08T08:50:22.007Z,1.10
2023-06-08T08:52:54.498Z,1.10
2023-06-08T08:55:35.625Z,1.10
2023-06-08T08:58:03.333Z,1.10
2023-06-08T09:00:36.883Z,1.00
2023-06-08T09:03:03.662Z,1.10
2023-06-08T09:05:30.429Z,1.00
2023-06-08T09:07:57.551Z,0.90
2023-06-08T09:10:26.876Z,1.10
2023-06-08T09:13:00.694Z,1.00
2023-06-08T09:15:28.979Z,1.17
2023-06-08T09:17:57.010Z,1.20
2023-06-08T09:20:42.127Z,1.10
2023-06-08T09:23:21.416Z,1.20
2023-06-08T09:25:48.640Z,1.10
2023-06-08T09:28:23.752Z,1.30
2023-06-08T09:30:51.177Z,1.00
2023-06-08T09:33:18.488Z,1.10
2023-06-08T09:35:45.605Z,1.10
2023-06-08T09:38:23.010Z,1.20
2023-06-08T09:40:50.799Z,1.10
2023-06-08T09:43:34.693Z,1.20
2023-06-08T09:46:01.429Z,1.25
2023-06-08T09:48:28.041Z,1.13
2023-06-08T09:51:01.391Z,1.30
2023-06-08T09:56:00.262Z,1.40
2023-06-08T09:58:30.527Z,1.40
2023-06-08T10:01:05.528Z,1.25
2023-06-08T10:03:40.044Z,1.60
2023-06-08T10:06:10.097Z,1.30
2023-06-08T10:08:39.947Z,1.40
2023-06-08T10:11:08.905Z,1.30
2023-06-08T10:13:36.033Z,1.10
2023-06-08T10:16:03.452Z,1.40
2023-06-08T10:18:31.582Z,1.15
2023-06-08T10:20:58.695Z,1.42
2023-06-08T10:23:26.468Z,1.40
2023-06-08T10:25:54.938Z,1.20
2023-06-08T10:28:22.093Z,1.20
2023-06-08T10:30:48.987Z,1.30
2023-06-08T10:33:25.756Z,1.20
2023-06-08T10:36:11.033Z,1.30
2023-06-08T10:38:57.140Z,1.40
2023-06-08T10:41:46.757Z,1.27
2023-06-08T10:44:27.792Z,1.45
2023-06-08T10:47:13.235Z,1.50
2023-06-08T10:49:45.768Z,1.33
2023-06-08T10:52:21.109Z,1.70
2023-06-08T10:54:53.066Z,1.20
2023-06-08T10:57:41.113Z,1.48
2023-06-08T11:00:26.391Z,1.58
2023-06-08T11:02:59.076Z,1.38
2023-06-08T11:05:29.615Z,1.67
2023-06-08T11:07:57.501Z,1.35
2023-06-08T11:10:25.022Z,1.30
2023-06-08T11:12:51.716Z,1.30
2023-06-08T11:15:19.886Z,1.70
2023-06-08T11:18:00.362Z,1.50
2023-06-08T11:20:27.965Z,1.20
2023-06-08T11:22:55.043Z,1.30
2023-06-08T11:25:24.410Z,1.30
2023-06-08T11:27:56.862Z,1.38
2023-06-08T11:30:27.933Z,1.20
2023-06-08T11:32:58.001Z,1.40
2023-06-08T11:35:25.094Z,1.45
2023-06-08T11:38:00.476Z,1.42
2023-06-08T11:40:28.260Z,1.45
2023-06-08T11:42:57.115Z,1.60
2023-06-08T11:45:24.813Z,1.50
2023-06-08T11:48:13.925Z,1.30
2023-06-08T11:50:51.632Z,1.63
2023-06-08T11:53:27.914Z,1.63
2023-06-08T11:55:55.467Z,1.58
2023-06-08T11:58:29.269Z,1.40
2023-06-08T12:01:12.584Z,1.65
2023-06-08T12:03:43.937Z,1.30
2023-06-08T12:06:11.108Z,1.50
2023-06-08T12:08:37.734Z,1.50
2023-06-08T12:11:11.887Z,1.42
2023-06-08T12:13:43.230Z,1.63
2023-06-08T12:16:11.516Z,1.38
2023-06-08T12:18:42.629Z,1.67
2023-06-08T12:21:11.840Z,1.50
2023-06-08T12:23:38.589Z,1.60
2023-06-08T12:26:05.283Z,1.60
2023-06-08T12:28:33.011Z,1.40
2023-06-08T12:31:02.131Z,1.85
2023-06-08T12:33:29.404Z,1.80
2023-06-08T12:35:56.129Z,1.95
2023-06-08T12:38:23.441Z,2.00
2023-06-08T12:40:52.916Z,1.70
2023-06-08T12:43:21.582Z,1.90
2023-06-08T12:45:49.323Z,1.80
2023-06-08T12:48:16.931Z,2.03
2023-06-08T12:50:43.648Z,1.88
2023-06-08T12:53:10.348Z,1.60
2023-06-08T12:55:37.136Z,1.85
2023-06-08T12:58:03.796Z,2.03
2023-06-08T13:00:30.425Z,1.60
2023-06-08T13:02:58.676Z,1.50
2023-06-08T13:05:30.357Z,1.75
2023-06-08T13:08:07.541Z,1.80
2023-06-08T13:10:36.724Z,1.58
2023-06-08T13:13:04.745Z,1.80
2023-06-08T13:15:32.414Z,1.75
2023-06-08T13:17:59.662Z,1.77
2023-06-08T13:20:26.806Z,1.73
2023-06-08T13:22:54.340Z,1.60
2023-06-08T13:25:22.312Z,1.50
2023-06-08T13:27:49.563Z,1.50
2023-06-08T13:30:16.822Z,1.50
2023-06-08T13:32:45.447Z,1.60
2023-06-08T13:35:12.674Z,1.75
2023-06-08T13:37:39.527Z,1.70
2023-06-08T13:40:09.569Z,1.40
2023-06-08T13:42:37.175Z,1.42
2023-06-08T13:45:04.111Z,1.50
2023-06-08T13:47:30.772Z,1.90
2023-06-08T13:49:57.437Z,1.50
2023-06-08T13:52:24.393Z,1.75
2023-06-08T13:54:50.974Z,1.85
2023-06-08T13:57:17.643Z,1.50
2023-06-08T13:59:44.280Z,1.70
2023-06-08T14:02:11.044Z,1.63
2023-06-08T14:04:37.970Z,1.92
2023-06-08T14:07:04.819Z,1.98
2023-06-08T14:09:32.425Z,1.90
2023-06-08T14:11:59.899Z,1.98
2023-06-08T14:14:26.639Z,1.90
2023-06-08T14:16:53.354Z,1.90
2023-06-08T14:19:19.956Z,2.10
2023-06-08T14:21:47.091Z,1.80
2023-06-08T14:24:13.962Z,2.10
2023-06-08T14:26:40.840Z,1.60
2023-06-08T14:29:09.487Z,1.80
2023-06-08T14:31:36.198Z,2.00
2023-06-08T14:34:02.976Z,2.00
2023-06-08T14:36:29.616Z,1.98
2023-06-08T14:38:56.896Z,1.60
2023-06-08T14:41:24.320Z,2.03
2023-06-08T14:43:52.869Z,2.00
2023-06-08T14:46:20.200Z,2.03
2023-06-08T14:48:47.217Z,1.95
2023-06-08T14:51:35.550Z,2.03
2023-06-08T14:54:01.972Z,1.83
2023-06-08T14:56:28.809Z,1.80
2023-06-08T14:58:55.528Z,1.67
2023-06-08T15:01:22.247Z,1.63
2023-06-08T15:03:49.000Z,2.10
2023-06-08T15:06:15.694Z,2.00
2023-06-08T15:08:42.359Z,1.88
2023-06-08T15:11:09.114Z,1.90
2023-06-08T15:13:35.767Z,1.90
2023-06-08T15:16:03.203Z,1.65
2023-06-08T15:18:32.334Z,2.10
2023-06-08T15:20:59.427Z,1.98
2023-06-08T15:23:26.083Z,1.85
2023-06-08T15:25:52.901Z,2.10
2023-06-08T15:28:19.924Z,2.00
2023-06-08T15:30:46.729Z,2.10
2023-06-08T15:33:13.597Z,1.98
2023-06-08T15:35:40.237Z,1.88
2023-06-08T15:38:06.957Z,2.00
2023-06-08T15:40:33.617Z,2.05
2023-06-08T15:43:00.397Z,1.88
2023-06-08T15:45:27.269Z,1.70
2023-06-08T15:47:53.957Z,1.80
2023-06-08T15:50:20.698Z,1.60
2023-06-08T15:52:47.392Z,2.10
2023-06-08T15:55:14.142Z,1.98
2023-06-08T15:57:40.957Z,1.98
2023-06-08T16:00:09.039Z,2.03
2023-06-08T16:02:38.090Z,1.70
2023-06-08T16:05:07.012Z,2.15
2023-06-08T16:07:33.851Z,2.10
2023-06-08T16:10:04.733Z,2.00
2023-06-08T16:12:31.714Z,2.00
2023-06-08T16:14:58.798Z,1.77
2023-06-08T16:17:25.740Z,1.77
2023-06-08T16:19:52.526Z,1.80
2023-06-08T16:22:19.238Z,1.58
2023-06-08T16:24:45.960Z,2.00
2023-06-08T16:27:14.965Z,1.80
2023-06-08T16:29:42.241Z,1.88
2023-06-08T16:32:09.177Z,1.92
2023-06-08T16:34:35.936Z,2.00
2023-06-08T16:37:02.624Z,1.80
2023-06-08T16:39:29.354Z,2.00
2023-06-08T16:41:56.106Z,1.85
2023-06-08T16:44:22.809Z,1.83
2023-06-08T16:46:49.475Z,1.95
2023-06-08T16:49:16.293Z,1.88
2023-06-08T16:51:43.142Z,1.80
2023-06-08T16:54:09.798Z,1.63
2023-06-08T16:56:36.726Z,1.70
2023-06-08T16:59:03.438Z,2.00
2023-06-08T17:01:30.102Z,1.70
2023-06-08T17:03:58.382Z,1.98
2023-06-08T17:06:25.055Z,1.95
2023-06-08T17:08:51.802Z,1.63
2023-06-08T17:11:18.485Z,1.67
2023-06-08T17:13:45.473Z,2.10
2023-06-08T17:16:12.124Z,2.08
2023-06-08T17:18:39.407Z,1.70
2023-06-08T17:21:08.561Z,1.52
2023-06-08T17:23:35.819Z,1.67
2023-06-08T17:26:02.646Z,1.58
2023-06-08T17:28:29.345Z,1.50
2023-06-08T17:30:56.217Z,1.60
2023-06-08T17:33:25.149Z,1.60
2023-06-08T17:35:52.230Z,1.38
2023-06-08T17:38:18.930Z,1.15
2023-06-08T17:40:45.806Z,1.25
2023-06-08T17:43:12.433Z,1.15
2023-06-08T17:45:39.131Z,1.00
2023-06-08T17:48:06.137Z,1.10
2023-06-08T17:50:32.893Z,1.10
2023-06-08T17:53:03.721Z,1.10
2023-06-08T17:55:31.135Z,1.00
2023-06-08T17:57:59.305Z,1.00
2023-06-08T18:00:27.214Z,1.00
2023-06-08T18:02:54.324Z,1.10
2023-06-08T18:05:21.679Z,1.10
2023-06-08T18:07:48.341Z,0.98
2023-06-08T18:10:15.205Z,1.10
2023-06-08T18:12:42.919Z,1.00
2023-06-08T18:15:09.973Z,1.00
2023-06-08T18:17:36.616Z,1.02
2023-06-08T18:20:06.435Z,0.90
2023-06-08T18:22:34.021Z,0.90
2023-06-08T18:25:01.974Z,1.00
2023-06-08T18:27:29.095Z,1.00
2023-06-08T18:29:55.937Z,1.00
2023-06-08T18:32:22.645Z,0.90
2023-06-08T18:34:49.385Z,1.10
2023-06-08T18:37:16.988Z,1.10
2023-06-08T18:39:57.160Z,0.98
2023-06-08T18:42:25.876Z,1.10
2023-06-08T18:44:52.601Z,0.98
2023-06-08T18:47:19.385Z,1.10
2023-06-08T18:49:46.472Z,0.90
2023-06-08T18:52:13.384Z,0.98
2023-06-08T18:54:40.759Z,0.90
2023-06-08T18:57:08.072Z,1.05
2023-06-08T18:59:34.761Z,0.80
2023-06-08T19:02:01.486Z,1.00
2023-06-08T19:04:28.083Z,0.90
2023-06-08T19:06:54.691Z,0.90
2023-06-08T19:09:25.582Z,0.90
2023-06-08T19:11:52.860Z,0.80
2023-06-08T19:14:19.536Z,0.90
2023-06-08T19:16:48.838Z,0.80
2023-06-08T19:19:19.098Z,0.90
2023-06-08T19:21:45.801Z,0.80
2023-06-08T19:24:12.895Z,0.90
2023-06-08T19:26:40.274Z,0.90
2023-06-08T19:29:08.851Z,0.80
2023-06-08T19:31:35.912Z,0.90
2023-06-08T19:34:02.690Z,0.90
2023-06-08T19:36:29.481Z,0.80
2023-06-08T19:38:56.345Z,0.80
2023-06-08T19:41:23.776Z,0.80
2023-06-08T19:43:51.232Z,0.82
2023-06-08T19:46:22.111Z,0.82
2023-06-08T19:48:51.012Z,0.80
2023-06-08T19:51:17.743Z,0.90
2023-06-08T19:53:44.659Z,0.90
2023-06-08T19:56:11.328Z,0.80
2023-06-08T19:58:37.999Z,0.90
2023-06-08T20:01:04.801Z,0.90
2023-06-08T20:03:31.551Z,0.90
2023-06-08T20:05:58.359Z,0.80
2023-06-08T20:08:27.910Z,0.90
2023-06-08T20:10:55.628Z,0.80
2023-06-08T20:13:22.215Z,0.90
2023-06-08T20:15:48.979Z,0.90
2023-06-08T20:18:19.835Z,0.80
2023-06-08T20:20:47.169Z,0.90
2023-06-08T20:23:14.353Z,0.85
2023-06-08T20:25:43.441Z,0.80
2023-06-08T20:28:10.568Z,0.90
2023-06-08T20:30:38.026Z,0.80
2023-06-08T20:33:05.519Z,0.85
2023-06-08T20:35:32.416Z,0.80
2023-06-08T20:37:59.241Z,0.80
2023-06-08T20:40:25.868Z,0.80
2023-06-08T20:42:53.615Z,0.80
2023-06-08T20:45:20.655Z,0.80
2023-06-08T20:47:47.396Z,0.80
2023-06-08T20:50:14.212Z,0.90
2023-06-08T20:52:43.260Z,0.85
2023-06-08T20:55:10.459Z,0.80
2023-06-08T20:57:37.289Z,0.80
2023-06-08T21:00:07.610Z,0.70
2023-06-08T21:02:34.558Z,0.80
2023-06-08T21:05:01.215Z,0.70
2023-06-08T21:07:27.882Z,0.80
2023-06-08T21:09:54.571Z,0.80
2023-06-08T21:12:23.229Z,0.80
2023-06-08T21:14:49.964Z,0.80
2023-06-08T21:17:16.612Z,0.80
2023-06-08T21:19:43.264Z,0.80
2023-06-08T21:22:09.909Z,0.80
2023-06-08T21:24:36.533Z,0.80
2023-06-08T21:27:03.186Z,0.70
2023-06-08T21:29:29.893Z,0.80
2023-06-08T21:31:56.596Z,0.70
2023-06-08T21:34:23.300Z,0.90
2023-06-08T21:36:50.647Z,0.70
2023-06-08T21:39:17.319Z,0.80
2023-06-08T21:41:44.542Z,0.80
2023-06-08T21:44:11.306Z,0.70
2023-06-08T21:46:37.977Z,0.80
2023-06-08T21:49:04.720Z,0.70
2023-06-08T21:51:31.413Z,0.73
2023-06-08T21:53:58.025Z,0.80
2023-06-08T21:56:25.067Z,0.70
2023-06-08T21:58:51.707Z,0.70
2023-06-08T22:01:18.673Z,0.80
2023-06-08T22:03:45.427Z,0.77
2023-06-08T22:06:12.639Z,0.70
2023-06-08T22:08:39.241Z,0.70
2023-06-08T22:11:05.975Z,0.70
2023-06-08T22:13:34.021Z,0.80
2023-06-08T22:16:02.442Z,0.80
2023-06-08T22:18:29.968Z,0.70
2023-06-08T22:21:00.835Z,0.70
2023-06-08T22:23:28.094Z,0.70
2023-06-08T22:25:54.841Z,0.70
2023-06-08T22:28:22.300Z,0.68
2023-06-08T22:30:49.176Z,0.70
2023-06-08T22:33:18.714Z,0.80
2023-06-08T22:35:49.845Z,0.80
2023-06-08T22:38:16.640Z,0.70
2023-06-08T22:40:43.915Z,0.80
2023-06-08T22:43:11.456Z,0.70
2023-06-08T22:45:38.487Z,0.77
2023-06-08T22:48:05.735Z,0.70
2023-06-08T22:50:32.852Z,0.80
2023-06-08T22:52:59.795Z,0.80
2023-06-08T22:55:27.646Z,0.80
2023-06-08T22:57:55.128Z,0.77
2023-06-08T23:00:22.357Z,0.77
2023-06-08T23:02:49.598Z,0.70
2023-06-08T23:05:17.043Z,0.80
2023-06-08T23:07:45.130Z,0.75
2023-06-08T23:10:15.985Z,0.70
2023-06-08T23:12:44.072Z,0.73
2023-06-08T23:15:14.467Z,0.70
2023-06-08T23:17:41.267Z,0.70
2023-06-08T23:20:10.517Z,0.80
2023-06-08T23:22:37.254Z,0.65
2023-06-08T23:25:06.330Z,0.70
2023-06-08T23:27:33.776Z,0.80
2023-06-08T23:30:01.337Z,0.70
2023-06-08T23:32:28.266Z,0.80
2023-06-08T23:34:55.836Z,0.80
2023-06-08T23:37:23.177Z,0.70
2023-06-08T23:39:51.048Z,0.70
2023-06-08T23:42:20.594Z,0.80
2023-06-08T23:44:49.966Z,0.70
2023-06-08T23:47:20.498Z,0.70
2023-06-08T23:49:48.180Z,0.77
2023-06-08T23:52:15.061Z,0.70
2023-06-08T23:54:41.720Z,0.70
2023-06-08T23:57:10.115Z,0.70
2023-06-08T23:59:37.188Z,0.70
